createdAt,value
2022-08-03T00:03:45.646Z,94.12
2022-08-03T00:08:50.030Z,94.30
2022-08-03T00:13:56.835Z,94.64
2022-08-03T00:19:00.639Z,94.31
2022-08-03T00:24:02.838Z,94.46
2022-08-03T00:29:06.620Z,94.33
2022-08-03T00:34:10.764Z,94.86
2022-08-03T00:39:14.302Z,94.67
2022-08-03T00:44:16.052Z,95.21
2022-08-03T00:49:22.791Z,95.99
2022-08-03T00:54:25.322Z,96.14
2022-08-03T00:59:27.783Z,95.61
2022-08-03T01:04:29.560Z,96.29
2022-08-03T01:09:47.937Z,96.85
2022-08-03T01:15:03.537Z,96.46
2022-08-03T01:20:11.346Z,96.24
2022-08-03T01:25:36.339Z,97.87
2022-08-03T01:30:39.691Z,97.33
2022-08-03T01:35:44.724Z,97.71
2022-08-03T01:40:47.125Z,97.42
2022-08-03T01:45:51.565Z,97.56
2022-08-03T01:50:57.263Z,97.29
2022-08-03T01:56:02.637Z,97.91
2022-08-03T02:01:07.596Z,97.58
2022-08-03T02:06:58.956Z,98.53
2022-08-03T02:11:43.694Z,97.88
2022-08-03T02:16:48.074Z,98.20
2022-08-03T02:21:57.431Z,98.43
2022-08-03T02:27:13.545Z,98.03
2022-08-03T02:32:21.573Z,99.30
2022-08-03T02:37:28.087Z,98.99
2022-08-03T02:42:32.509Z,98.47
2022-08-03T02:47:54.430Z,99.50
2022-08-03T02:52:57.335Z,99.09
2022-08-03T02:58:02.002Z,99.49
2022-08-03T03:03:04.619Z,99.76
2022-08-03T03:08:17.634Z,99.84
2022-08-03T03:13:26.057Z,99.64
2022-08-03T03:18:31.357Z,99.36
2022-08-03T03:23:37.155Z,99.80
2022-08-03T03:28:42.522Z,100.00
2022-08-03T03:33:48.713Z,100.00
2022-08-03T03:38:50.545Z,99.98
2022-08-03T03:43:55.751Z,100.00
2022-08-03T03:49:00.634Z,100.00
2022-08-03T03:54:07.190Z,100.00
2022-08-03T03:59:08.945Z,100.00
2022-08-03T04:04:29.299Z,100.00
2022-08-03T04:09:55.015Z,100.00
2022-08-03T04:15:04.193Z,99.63
2022-08-03T04:20:12.792Z,99.39
2022-08-03T04:25:21.302Z,98.54
2022-08-03T04:30:27.995Z,98.97
2022-08-03T04:36:01.677Z,99.80
2022-08-03T04:41:07.623Z,99.08
2022-08-03T04:46:12.045Z,99.46
2022-08-03T04:51:18.700Z,99.25
2022-08-03T04:56:25.228Z,99.25
2022-08-03T05:01:29.502Z,98.40
2022-08-03T05:06:31.417Z,95.82
2022-08-03T05:11:38.353Z,95.35
2022-08-03T05:16:42.621Z,94.37
2022-08-03T05:21:53.122Z,93.34
2022-08-03T05:26:59.566Z,93.20
2022-08-03T05:32:09.545Z,92.79
2022-08-03T05:37:13.879Z,92.26
2022-08-03T05:42:18.734Z,92.14
2022-08-03T05:47:24.549Z,92.09
2022-08-03T05:52:27.873Z,91.60
2022-08-03T05:57:34.849Z,91.48
2022-08-03T06:02:37.953Z,90.45
2022-08-03T06:07:46.779Z,90.71
2022-08-03T06:12:49.553Z,89.99
2022-08-03T06:17:52.663Z,90.42
2022-08-03T06:23:01.057Z,89.14
2022-08-03T06:28:12.144Z,89.77
2022-08-03T06:34:30.443Z,88.96
2022-08-03T06:38:51.875Z,88.70
2022-08-03T06:44:03.065Z,88.51
2022-08-03T06:49:07.295Z,87.81
2022-08-03T06:54:09.152Z,87.04
2022-08-03T07:00:08.226Z,87.06
2022-08-03T07:04:36.304Z,87.53
2022-08-03T07:09:39.040Z,86.58
2022-08-03T07:14:43.550Z,86.35
2022-08-03T07:19:47.599Z,87.02
2022-08-03T07:24:54.853Z,86.70
2022-08-03T07:29:59.082Z,86.35
2022-08-03T07:35:02.653Z,86.11
2022-08-03T07:40:13.117Z,86.00
2022-08-03T07:45:17.226Z,85.30
2022-08-03T07:50:18.991Z,84.71
2022-08-03T07:55:30.381Z,83.56
2022-08-03T08:00:34.829Z,84.33
2022-08-03T08:05:37.076Z,83.31
2022-08-03T08:10:38.890Z,83.58
2022-08-03T08:15:42.583Z,83.02
2022-08-03T08:20:46.471Z,82.45
2022-08-03T08:25:52.256Z,82.54
2022-08-03T08:30:56.274Z,82.34
2022-08-03T08:36:02.897Z,80.68
2022-08-03T08:41:05.049Z,79.81
2022-08-03T08:46:12.040Z,80.20
2022-08-03T08:51:14.403Z,79.53
2022-08-03T08:56:17.224Z,78.98
2022-08-03T09:01:22.803Z,77.81
2022-08-03T09:06:27.029Z,78.04
2022-08-03T09:11:54.440Z,77.97
2022-08-03T09:17:04.654Z,76.81
2022-08-03T09:22:15.816Z,76.35
2022-08-03T09:27:19.025Z,75.24
2022-08-03T09:32:32.894Z,74.92
2022-08-03T09:38:12.290Z,74.35
2022-08-03T09:43:04.572Z,73.78
2022-08-03T09:48:26.995Z,73.11
2022-08-03T09:53:31.721Z,72.85
2022-08-03T09:58:33.488Z,72.93
2022-08-03T10:04:02.957Z,72.47
2022-08-03T10:09:04.878Z,71.33
2022-08-03T10:14:09.052Z,69.52
2022-08-03T10:19:15.160Z,69.35
2022-08-03T10:24:26.780Z,69.06
2022-08-03T10:29:29.292Z,68.18
2022-08-03T10:34:35.200Z,67.42
2022-08-03T10:39:37.078Z,67.20
2022-08-03T10:44:46.315Z,64.96
2022-08-03T10:49:49.967Z,65.78
2022-08-03T10:55:10.950Z,65.89
2022-08-03T11:00:18.254Z,65.04
2022-08-03T11:05:29.247Z,61.75
2022-08-03T11:10:38.127Z,59.96
2022-08-03T11:15:40.019Z,60.41
2022-08-03T11:20:59.315Z,59.80
2022-08-03T11:26:13.829Z,59.12
2022-08-03T11:31:48.615Z,59.03
2022-08-03T11:37:27.457Z,58.94
2022-08-03T11:42:35.286Z,57.33
2022-08-03T11:47:50.307Z,57.13
2022-08-03T11:53:00.540Z,56.21
2022-08-03T11:59:01.218Z,54.56
2022-08-03T12:03:34.831Z,53.06
2022-08-03T12:08:36.697Z,53.55
2022-08-03T12:14:44.752Z,54.10
2022-08-03T12:19:13.044Z,52.11
2022-08-03T12:24:16.522Z,51.58
2022-08-03T12:29:19.073Z,52.08
2022-08-03T12:34:25.507Z,50.51
2022-08-03T12:39:35.061Z,50.70
2022-08-03T12:44:36.915Z,47.74
2022-08-03T12:49:53.885Z,47.44
2022-08-03T12:55:00.116Z,46.07
2022-08-03T13:00:19.919Z,45.17
2022-08-03T13:05:30.368Z,45.38
2022-08-03T13:10:35.176Z,43.10
2022-08-03T13:15:47.834Z,42.28
2022-08-03T13:20:50.069Z,42.91
2022-08-03T13:25:55.304Z,40.95
2022-08-03T13:30:58.972Z,41.90
2022-08-03T13:36:02.507Z,40.54
2022-08-03T13:41:05.229Z,40.66
2022-08-03T13:46:09.411Z,39.51
2022-08-03T13:51:22.769Z,39.50
2022-08-03T13:56:27.109Z,41.27
2022-08-03T14:01:54.208Z,41.29
2022-08-03T14:06:53.962Z,39.19
2022-08-03T14:12:07.248Z,38.74
2022-08-03T14:17:10.669Z,38.83
2022-08-03T14:22:16.997Z,40.23
2022-08-03T14:27:21.558Z,38.36
2022-08-03T14:32:23.405Z,40.51
2022-08-03T14:37:27.691Z,38.89
2022-08-03T14:42:29.459Z,37.05
2022-08-03T14:47:33.659Z,36.36
2022-08-03T14:52:57.899Z,35.34
2022-08-03T14:58:10.024Z,35.94
2022-08-03T15:03:28.739Z,36.85
2022-08-03T15:08:34.419Z,38.49
2022-08-03T15:13:36.188Z,36.02
2022-08-03T15:18:40.111Z,37.85
2022-08-03T15:23:43.966Z,37.47
2022-08-03T15:28:51.079Z,40.41
2022-08-03T15:33:53.463Z,42.07
2022-08-03T15:38:56.428Z,41.40
2022-08-03T15:43:58.939Z,40.32
2022-08-03T15:49:00.676Z,39.55
2022-08-03T15:54:07.020Z,38.19
2022-08-03T15:59:14.102Z,38.07
2022-08-03T16:04:22.771Z,37.67
2022-08-03T16:09:42.438Z,39.01
2022-08-03T16:14:52.861Z,39.57
2022-08-03T16:19:59.894Z,39.02
2022-08-03T16:25:02.011Z,38.60
2022-08-03T16:30:11.484Z,38.92
2022-08-03T16:35:19.777Z,38.67
2022-08-03T16:40:24.922Z,38.89
2022-08-03T16:45:29.744Z,39.61
2022-08-03T16:50:31.530Z,41.78
2022-08-03T16:55:48.597Z,42.48
2022-08-03T17:00:57.541Z,43.91
2022-08-03T17:06:06.971Z,46.95
2022-08-03T17:11:14.711Z,49.16
2022-08-03T17:16:21.452Z,51.44
2022-08-03T17:21:30.964Z,53.10
2022-08-03T17:26:41.036Z,54.49
2022-08-03T17:31:48.679Z,55.62
2022-08-03T17:37:07.029Z,57.12
2022-08-03T17:42:30.892Z,58.50
2022-08-03T17:47:42.105Z,59.62
2022-08-03T17:52:51.401Z,60.98
2022-08-03T17:58:06.644Z,62.31
2022-08-03T18:03:58.273Z,62.62
2022-08-03T18:09:05.069Z,63.79
2022-08-03T18:14:38.849Z,65.01
2022-08-03T18:20:03.367Z,66.83
2022-08-03T18:25:13.241Z,67.44
2022-08-03T18:30:15.498Z,67.22
2022-08-03T18:35:24.715Z,68.85
2022-08-03T18:40:32.651Z,70.76
2022-08-03T18:45:55.865Z,71.70
2022-08-03T18:51:24.233Z,71.63
2022-08-03T18:56:44.552Z,72.90
2022-08-03T19:01:59.115Z,73.07
2022-08-03T19:07:16.961Z,74.05
2022-08-03T19:12:42.775Z,73.54
2022-08-03T19:17:53.287Z,74.79
2022-08-03T19:22:56.885Z,75.57
2022-08-03T19:28:03.030Z,76.26
2022-08-03T19:33:10.557Z,76.35
2022-08-03T19:43:54.004Z,77.63
2022-08-03T19:49:10.299Z,79.13
2022-08-03T19:54:16.002Z,78.67
2022-08-03T19:59:22.237Z,79.71
2022-08-03T20:04:28.953Z,80.39
2022-08-03T20:09:34.252Z,80.48
2022-08-03T20:14:39.046Z,81.11
2022-08-03T20:19:49.257Z,83.55
2022-08-03T20:24:54.310Z,83.71
2022-08-03T20:30:06.661Z,83.81
2022-08-03T20:35:11.728Z,83.17
2022-08-03T20:40:16.715Z,83.67
2022-08-03T20:45:58.382Z,82.96
2022-08-03T20:50:44.411Z,83.55
2022-08-03T20:56:02.168Z,83.44
2022-08-03T21:01:07.477Z,84.38
2022-08-03T21:06:15.133Z,84.19
2022-08-03T21:11:19.152Z,84.78
2022-08-03T21:13:09.393Z,77.33
2022-08-03T21:16:28.940Z,84.90
2022-08-03T21:21:33.407Z,85.44
2022-08-03T21:26:39.656Z,85.41
2022-08-03T21:31:43.430Z,85.70
2022-08-03T21:36:49.446Z,85.17
2022-08-03T21:41:55.725Z,85.65
2022-08-03T21:46:58.692Z,86.59
2022-08-03T21:52:11.575Z,87.21
2022-08-03T21:57:20.532Z,87.58
2022-08-03T22:02:27.794Z,88.43
2022-08-03T22:07:40.962Z,89.62
2022-08-03T22:12:47.423Z,90.58
2022-08-03T22:17:55.036Z,91.66
2022-08-03T22:23:04.605Z,91.29
2022-08-03T22:28:09.615Z,92.32
2022-08-03T22:33:14.928Z,92.16
2022-08-03T22:38:20.079Z,92.61
2022-08-03T22:43:27.145Z,93.01
2022-08-03T22:48:32.508Z,93.88
2022-08-03T22:53:39.055Z,94.40
2022-08-03T22:58:41.415Z,95.12
2022-08-03T23:04:00.083Z,94.57
2022-08-03T23:09:09.086Z,95.44
2022-08-03T23:14:12.492Z,96.18
2022-08-03T23:19:25.815Z,97.32
2022-08-03T23:24:29.589Z,97.85
2022-08-03T23:29:34.322Z,98.65
2022-08-03T23:34:58.355Z,99.10
2022-08-03T23:40:01.226Z,99.71
2022-08-03T23:45:06.575Z,100.00
2022-08-03T23:50:13.068Z,100.00
2022-08-03T23:55:14.723Z,100.00
